Galati, Romania
Current Conditions -  °F | °C
As of 7:30 AM on Friday 31 Oct 2014 (Local Time) from LRTC Reporting Station
Haze Haze  
Wind Chill: 33°   Ceiling: 2400
Heat Index: 39°   Visibility: 2.5mi
Dew Point: 37°   Wind: 9mph
Humidity: 93%   Direction: 320°NW
Pressure: 30.18"   Gusts: NA
Location:  45.44°N, 28.04°E
Report Text: LRTC 310430Z AUTO 32008KT 4100 BR FEW008 OVC024 04/03 Q1022
Loading
Personal Weather Stations






























Interactive Weather Map
Tropical Storm Tracking
New forecast layout! Learn more

10-Day Weather Forecast

Advertisements
Track Severe Weather on mobile